KBAD/BAD METAR and TAF weather

Enter ICAO airport designator
Station Type Date Time Source
KBAD METAR 2019/08/19 06:56 UTC NOAA

KBAD 190656Z AUTO 14006KT 10SM CLR 25/25 A2995 RMK AO2 SLP143 T02530253


Station Type Date Time Source
KBAD Decoded METAR 2019/08/19 06:56 UTC NOAA

Station name not available
Aug 19, 2019 - 02:56 AM EDT / 2019.08.19 0656 UTC
Wind: from the SE (140 degrees) at 7 MPH (6 KT):0
Visibility: 10 mile(s):0
Sky conditions: clear
Temperature: 77.5 F (25.3 C)
Dew Point: 77.5 F (25.3 C)
Relative Humidity: 100%
Pressure (altimeter): 29.95 in. Hg (1014 hPa)
ob: KBAD 190656Z AUTO 14006KT 10SM CLR 25/25 A2995 RMK AO2 SLP143 T02530253
cycle: 7

Station Type Date Time Source
KBAD TAF 2019/08/19 02:07 UTC NOAA

TAF KBAD 190200Z 1902/2008 18005KT 9999 FEW050 QNH2989INS
BECMG 1913/1914 23010G15KT 9999 BKN015 QNH2997INS
BECMG 1917/1918 18005KT 9999 FEW100 QNH2993INS TX38/1922Z TN22/1912Z

Example: see airport list